createdAt,value
2019-03-23T00:01:41.995Z,111.83
2019-03-23T00:04:10.886Z,106.65
2019-03-23T00:06:39.788Z,107.30
2019-03-23T00:09:08.882Z,100.97
2019-03-23T00:11:37.972Z,88.92
2019-03-23T00:14:07.114Z,90.90
2019-03-23T00:16:35.711Z,95.22
2019-03-23T00:19:04.034Z,92.88
2019-03-23T00:21:33.232Z,87.27
2019-03-23T00:24:02.026Z,89.17
2019-03-23T00:26:30.814Z,83.55
2019-03-23T00:28:59.499Z,86.92
2019-03-23T00:31:28.187Z,78.95
2019-03-23T00:33:56.669Z,79.82
2019-03-23T00:36:25.670Z,70.75
2019-03-23T00:38:54.252Z,68.45
2019-03-23T00:41:23.038Z,72.92
2019-03-23T00:43:51.995Z,77.27
2019-03-23T00:46:20.308Z,77.75
2019-03-23T00:48:48.654Z,76.72
2019-03-23T00:51:17.226Z,73.72
2019-03-23T00:53:48.009Z,76.65
2019-03-23T00:56:16.622Z,75.30
2019-03-23T00:58:46.024Z,77.70
2019-03-23T01:01:14.659Z,76.15
2019-03-23T01:03:43.269Z,73.97
2019-03-23T01:06:11.861Z,85.20
2019-03-23T01:08:40.547Z,81.55
2019-03-23T01:11:09.539Z,77.42
2019-03-23T01:13:37.917Z,73.30
2019-03-23T01:16:06.400Z,87.20
2019-03-23T01:18:35.087Z,77.30
2019-03-23T01:21:04.797Z,78.15
2019-03-23T01:23:33.177Z,80.75
2019-03-23T01:26:01.638Z,79.87
2019-03-23T01:28:30.042Z,75.87
2019-03-23T01:30:58.521Z,75.90
2019-03-23T01:33:27.107Z,79.47
2019-03-23T01:35:55.897Z,77.30
2019-03-23T01:38:24.172Z,71.75
2019-03-23T01:40:53.513Z,81.53
2019-03-23T01:43:22.011Z,76.07
2019-03-23T01:45:51.011Z,74.97
2019-03-23T01:48:19.537Z,73.92
2019-03-23T01:50:49.283Z,69.77
2019-03-23T01:53:18.308Z,72.05
2019-03-23T01:55:47.440Z,72.82
2019-03-23T01:58:16.332Z,73.65
2019-03-23T02:00:44.738Z,74.47
2019-03-23T02:03:13.295Z,71.37
2019-03-23T02:05:42.353Z,73.28
2019-03-23T02:08:11.047Z,79.72
2019-03-23T02:10:39.229Z,77.95
2019-03-23T02:13:09.729Z,87.33
2019-03-23T02:15:38.063Z,79.35
2019-03-23T02:18:06.750Z,79.40
2019-03-23T02:20:35.539Z,78.45
2019-03-23T02:23:04.024Z,83.80
2019-03-23T02:25:32.975Z,79.40
2019-03-23T02:28:01.397Z,84.25
2019-03-23T02:30:30.808Z,84.83
2019-03-23T02:33:01.023Z,80.87
2019-03-23T02:35:29.505Z,80.57
2019-03-23T02:37:58.002Z,88.00
2019-03-23T02:40:26.578Z,91.15
2019-03-23T02:42:55.587Z,84.83
2019-03-23T02:45:23.847Z,83.20
2019-03-23T02:47:52.454Z,90.62
2019-03-23T02:50:22.560Z,77.05
2019-03-23T02:52:50.940Z,87.95
2019-03-23T02:55:19.620Z,95.50
2019-03-23T02:57:47.997Z,93.92
2019-03-23T03:00:16.602Z,101.30
2019-03-23T03:02:44.998Z,100.15
2019-03-23T03:05:14.129Z,109.80
2019-03-23T03:07:43.559Z,101.80
2019-03-23T03:10:12.050Z,103.65
2019-03-23T03:12:43.379Z,109.67
2019-03-23T03:15:11.678Z,100.97
2019-03-23T03:17:40.671Z,101.85
2019-03-23T03:20:09.252Z,93.90
2019-03-23T03:22:37.942Z,102.38
2019-03-23T03:25:06.114Z,98.90
2019-03-23T03:27:34.597Z,102.32
2019-03-23T03:30:03.107Z,94.07
2019-03-23T03:32:36.411Z,98.00
2019-03-23T03:35:04.758Z,87.90
2019-03-23T03:37:34.530Z,88.67
2019-03-23T03:40:02.744Z,80.65
2019-03-23T03:42:31.148Z,75.03
2019-03-23T03:44:59.415Z,75.28
2019-03-23T03:47:27.780Z,69.55
2019-03-23T03:49:59.481Z,68.87
2019-03-23T03:52:28.127Z,77.17
2019-03-23T03:54:56.710Z,68.67
2019-03-23T03:57:25.322Z,65.35
2019-03-23T03:59:54.294Z,71.00
2019-03-23T04:02:25.801Z,76.67
2019-03-23T04:04:53.508Z,72.65
2019-03-23T04:07:21.885Z,72.80
2019-03-23T04:09:50.470Z,67.03
2019-03-23T04:12:20.594Z,69.32
2019-03-23T04:14:49.707Z,66.82
2019-03-23T04:17:18.805Z,73.02
2019-03-23T04:19:49.026Z,68.50
2019-03-23T04:22:17.388Z,62.62
2019-03-23T04:24:47.979Z,59.93
2019-03-23T04:27:16.197Z,60.90
2019-03-23T04:29:44.473Z,65.05
2019-03-23T04:32:13.570Z,64.17
2019-03-23T04:34:42.570Z,63.85
2019-03-23T04:37:11.067Z,64.80
2019-03-23T04:39:42.442Z,60.05
2019-03-23T04:42:10.880Z,56.53
2019-03-23T04:44:39.568Z,59.93
2019-03-23T04:47:08.086Z,60.03
2019-03-23T04:49:39.707Z,65.65
2019-03-23T04:52:11.155Z,69.65
2019-03-23T04:54:39.534Z,73.17
2019-03-23T04:57:08.430Z,65.45
2019-03-23T04:59:37.070Z,63.78
2019-03-23T05:02:05.598Z,57.33
2019-03-23T05:04:35.012Z,59.42
2019-03-23T05:07:03.381Z,61.13
2019-03-23T05:09:32.606Z,58.13
2019-03-23T05:12:00.859Z,55.60
2019-03-23T05:14:29.854Z,56.53
2019-03-23T05:16:58.398Z,53.42
2019-03-23T05:19:27.193Z,51.98
2019-03-23T05:21:56.018Z,58.87
2019-03-23T05:24:24.804Z,50.00
2019-03-23T05:26:53.389Z,51.65
2019-03-23T05:29:21.771Z,55.10
2019-03-23T05:31:50.663Z,51.45
2019-03-23T05:34:18.938Z,52.98
2019-03-23T05:36:47.337Z,47.88
2019-03-23T05:39:15.927Z,50.25
2019-03-23T05:41:44.283Z,49.03
2019-03-23T05:44:12.634Z,46.92
2019-03-23T05:46:41.724Z,47.55
2019-03-23T05:49:10.449Z,49.25
2019-03-23T05:51:42.347Z,42.25
2019-03-23T05:54:10.791Z,42.48
2019-03-23T05:56:40.416Z,43.52
2019-03-23T05:59:08.591Z,43.48
2019-03-23T06:01:36.803Z,46.55
2019-03-23T06:04:05.408Z,41.33
2019-03-23T06:06:37.238Z,45.78
2019-03-23T06:09:05.768Z,40.40
2019-03-23T06:11:34.469Z,38.88
2019-03-23T06:14:03.475Z,39.33
2019-03-23T06:16:31.949Z,37.90
2019-03-23T06:19:01.147Z,37.50
2019-03-23T06:21:32.950Z,34.65
2019-03-23T06:24:04.235Z,38.40
2019-03-23T06:26:32.839Z,39.65
2019-03-23T06:29:01.220Z,36.45
2019-03-23T06:31:30.375Z,32.03
2019-03-23T06:33:58.797Z,30.35
2019-03-23T06:36:27.336Z,43.45
2019-03-23T06:39:05.141Z,43.28
2019-03-23T06:41:25.983Z,37.55
2019-03-23T06:43:54.879Z,46.58
2019-03-23T06:46:24.631Z,44.15
2019-03-23T06:48:54.838Z,33.25
2019-03-23T06:51:23.192Z,42.10
2019-03-23T06:53:52.095Z,34.90
2019-03-23T06:56:20.684Z,40.70
2019-03-23T06:58:49.561Z,34.53
2019-03-23T07:01:21.420Z,33.75
2019-03-23T07:03:50.110Z,32.00
2019-03-23T07:06:18.487Z,34.70
2019-03-23T07:08:47.388Z,38.55
2019-03-23T07:11:15.554Z,31.62
2019-03-23T07:13:43.840Z,37.33
2019-03-23T07:16:12.416Z,28.20
2019-03-23T07:18:40.917Z,33.48
2019-03-23T07:21:10.235Z,32.63
2019-03-23T07:23:38.688Z,34.43
2019-03-23T07:26:06.858Z,34.13
2019-03-23T07:28:37.776Z,33.35
2019-03-23T07:31:06.113Z,36.53
2019-03-23T07:33:34.351Z,32.80
2019-03-23T07:36:02.835Z,38.73
2019-03-23T07:38:32.545Z,34.35
2019-03-23T07:41:01.031Z,32.13
2019-03-23T07:43:29.720Z,32.63
2019-03-23T07:45:58.411Z,32.48
2019-03-23T07:48:28.553Z,32.95
2019-03-23T07:50:57.109Z,33.85
2019-03-23T07:53:25.390Z,29.70
2019-03-23T07:55:53.872Z,35.52
2019-03-23T07:58:22.355Z,28.40
2019-03-23T08:00:51.672Z,29.65
2019-03-23T08:03:24.361Z,30.62
2019-03-23T08:05:53.754Z,36.08
2019-03-23T08:08:22.011Z,28.17
2019-03-23T08:10:50.701Z,29.32
2019-03-23T08:13:19.722Z,36.00
2019-03-23T08:15:48.077Z,29.63
2019-03-23T08:18:16.966Z,30.90
2019-03-23T08:20:45.986Z,30.30
2019-03-23T08:23:14.647Z,31.07
2019-03-23T08:25:43.397Z,31.80
2019-03-23T08:28:11.921Z,38.00
2019-03-23T08:30:40.407Z,32.30
2019-03-23T08:33:09.199Z,30.97
2019-03-23T08:35:37.469Z,36.93
2019-03-23T08:38:06.366Z,32.67
2019-03-23T08:40:35.934Z,35.78
2019-03-23T08:43:04.351Z,28.00
2019-03-23T08:45:32.630Z,33.48
2019-03-23T08:48:04.244Z,31.77
2019-03-23T08:50:32.664Z,32.97
2019-03-23T08:53:01.995Z,29.23
2019-03-23T08:55:30.921Z,34.13
2019-03-23T08:57:59.239Z,40.12
2019-03-23T09:00:27.786Z,31.07
2019-03-23T09:02:56.684Z,33.80
2019-03-23T09:05:25.096Z,32.83
2019-03-23T09:07:54.095Z,33.75
2019-03-23T09:10:23.993Z,36.13
2019-03-23T09:12:52.651Z,37.50
2019-03-23T09:15:20.970Z,31.95
2019-03-23T09:17:49.553Z,34.45
2019-03-23T09:20:17.933Z,34.33
2019-03-23T09:22:46.823Z,34.83
2019-03-23T09:25:15.674Z,29.00
2019-03-23T09:27:44.004Z,37.78
2019-03-23T09:30:12.581Z,33.53
2019-03-23T09:32:41.166Z,46.53
2019-03-23T09:35:09.552Z,32.88
2019-03-23T09:37:38.724Z,42.30
2019-03-23T09:40:11.221Z,35.40
2019-03-23T09:42:37.758Z,39.05
2019-03-23T09:45:06.038Z,46.63
2019-03-23T09:47:34.314Z,43.00
2019-03-23T09:50:02.965Z,43.05
2019-03-23T09:52:31.382Z,42.88
2019-03-23T09:54:59.859Z,49.80
2019-03-23T09:57:28.449Z,42.70
2019-03-23T09:59:56.886Z,45.30
2019-03-23T10:02:25.824Z,47.80
2019-03-23T10:04:54.512Z,51.30
2019-03-23T10:07:23.567Z,46.40
2019-03-23T10:09:52.086Z,42.17
2019-03-23T10:12:20.528Z,41.33
2019-03-23T10:14:48.949Z,43.65
2019-03-23T10:17:18.763Z,41.80
2019-03-23T10:19:47.552Z,39.27
2019-03-23T10:22:16.032Z,44.23
2019-03-23T10:24:44.413Z,41.40
2019-03-23T10:27:14.643Z,46.77
2019-03-23T10:29:43.028Z,48.65
2019-03-23T10:32:14.879Z,48.10
2019-03-23T10:34:43.318Z,41.92
2019-03-23T10:37:12.558Z,47.13
2019-03-23T10:39:41.148Z,41.13
2019-03-23T10:42:09.736Z,42.30
2019-03-23T10:44:38.217Z,40.05
2019-03-23T10:47:06.591Z,44.23
2019-03-23T10:49:35.448Z,44.30
2019-03-23T10:52:05.712Z,50.88
2019-03-23T10:54:35.088Z,48.60
2019-03-23T10:57:04.105Z,56.58
2019-03-23T10:59:32.485Z,52.25
2019-03-23T11:02:00.930Z,46.00
2019-03-23T11:04:29.423Z,51.08
2019-03-23T11:06:57.827Z,49.93
2019-03-23T11:09:26.414Z,48.35
2019-03-23T11:11:55.611Z,45.78
2019-03-23T11:14:24.434Z,64.32
2019-03-23T11:16:52.747Z,60.83
2019-03-23T11:19:21.166Z,54.98
2019-03-23T11:21:56.278Z,47.58
2019-03-23T11:24:23.360Z,51.92
2019-03-23T11:26:51.631Z,52.80
2019-03-23T11:29:20.009Z,49.80
2019-03-23T11:31:48.829Z,52.95
2019-03-23T11:34:18.304Z,44.93
2019-03-23T11:36:47.871Z,40.92
2019-03-23T11:39:17.533Z,47.53
2019-03-23T11:41:45.953Z,46.23
2019-03-23T11:44:14.699Z,46.55
2019-03-23T11:46:45.133Z,40.30
2019-03-23T11:49:13.598Z,43.95
2019-03-23T11:51:41.876Z,50.73
2019-03-23T11:54:10.362Z,44.30
2019-03-23T11:56:38.943Z,42.60
2019-03-23T11:59:07.530Z,38.02
2019-03-23T12:01:37.547Z,41.85
2019-03-23T12:04:05.828Z,42.93
2019-03-23T12:06:42.737Z,43.78
2019-03-23T12:09:07.101Z,50.52
2019-03-23T12:11:35.847Z,42.90
2019-03-23T12:14:06.258Z,47.60
2019-03-23T12:16:33.870Z,47.95
2019-03-23T12:19:02.861Z,49.15
2019-03-23T12:21:31.036Z,46.00
2019-03-23T12:23:59.465Z,45.25
2019-03-23T12:26:28.178Z,50.33
2019-03-23T12:28:56.586Z,43.70
2019-03-23T12:31:24.965Z,41.50
2019-03-23T12:33:53.243Z,45.90
2019-03-23T12:36:21.624Z,43.30
2019-03-23T12:38:49.810Z,44.67
2019-03-23T12:41:22.996Z,45.40
2019-03-23T12:43:48.298Z,45.95
2019-03-23T12:46:16.889Z,46.90
2019-03-23T12:48:45.368Z,42.38
2019-03-23T12:51:15.281Z,36.53
2019-03-23T12:53:44.694Z,40.55
2019-03-23T12:56:13.478Z,43.95
2019-03-23T12:58:41.976Z,41.18
2019-03-23T13:01:11.011Z,39.30
2019-03-23T13:03:39.435Z,37.95
2019-03-23T13:06:08.119Z,36.45
2019-03-23T13:08:36.814Z,41.25
2019-03-23T13:11:05.564Z,39.23
2019-03-23T13:13:35.423Z,37.03
2019-03-23T13:16:07.134Z,34.43
2019-03-23T13:18:35.972Z,41.13
2019-03-23T13:21:11.602Z,40.75
2019-03-23T13:23:40.822Z,38.25
2019-03-23T13:26:26.825Z,38.50
2019-03-23T13:29:05.978Z,35.33
2019-03-23T13:31:36.067Z,31.60
2019-03-23T13:34:08.237Z,32.85
2019-03-23T13:36:36.811Z,33.83
2019-03-23T13:39:05.478Z,45.25
2019-03-23T13:41:44.613Z,36.35
2019-03-23T13:44:16.299Z,37.33
2019-03-23T13:46:47.801Z,41.50
2019-03-23T13:49:15.962Z,34.20
2019-03-23T13:54:47.835Z,32.73
2019-03-23T13:57:20.068Z,40.78
2019-03-23T13:59:49.681Z,60.70
2019-03-23T14:02:21.552Z,38.80
2019-03-23T14:04:53.610Z,36.23
2019-03-23T14:07:23.054Z,38.73
2019-03-23T14:09:54.504Z,37.03
2019-03-23T14:12:23.148Z,35.23
2019-03-23T14:14:51.964Z,39.98
2019-03-23T14:17:20.332Z,41.33
2019-03-23T14:19:52.241Z,45.63
2019-03-23T14:22:21.150Z,37.80
2019-03-23T14:24:49.448Z,35.90
2019-03-23T14:27:18.211Z,33.30
2019-03-23T14:29:47.245Z,34.53
2019-03-23T14:32:16.841Z,36.85
2019-03-23T14:34:45.325Z,36.03
2019-03-23T14:37:14.022Z,39.92
2019-03-23T14:39:43.211Z,34.15
2019-03-23T14:42:11.487Z,44.60
2019-03-23T14:44:39.867Z,34.23
2019-03-23T14:47:08.045Z,33.85
2019-03-23T14:49:37.205Z,36.23
2019-03-23T14:52:07.465Z,34.13
2019-03-23T14:54:35.697Z,33.98
2019-03-23T14:57:04.231Z,31.48
2019-03-23T14:59:33.014Z,31.55
2019-03-23T15:02:01.394Z,33.48
2019-03-23T15:04:30.081Z,32.65
2019-03-23T15:06:59.490Z,33.92
2019-03-23T15:09:27.660Z,31.97
2019-03-23T15:11:56.963Z,28.90
2019-03-23T15:14:25.360Z,28.90
2019-03-23T15:16:55.259Z,30.57
2019-03-23T15:19:24.124Z,31.25
2019-03-23T15:21:52.750Z,29.45
2019-03-23T15:24:21.321Z,32.80
2019-03-23T15:26:50.485Z,31.57
2019-03-23T15:29:21.441Z,30.10
2019-03-23T15:31:50.043Z,33.18
2019-03-23T15:34:18.744Z,31.05
2019-03-23T15:36:47.111Z,30.82
2019-03-23T15:39:15.695Z,28.32
2019-03-23T15:41:44.485Z,29.27
2019-03-23T15:44:13.273Z,29.23
2019-03-23T15:46:41.755Z,28.70
2019-03-23T15:49:10.659Z,26.25
2019-03-23T15:51:40.049Z,27.48
2019-03-23T15:54:08.638Z,23.50
2019-03-23T15:56:38.362Z,24.40
2019-03-23T15:59:06.629Z,23.67
2019-03-23T16:01:34.906Z,25.12
2019-03-23T16:04:03.899Z,24.75
2019-03-23T16:06:32.482Z,23.67
2019-03-23T16:09:01.179Z,26.17
2019-03-23T16:11:31.289Z,26.80
2019-03-23T16:13:59.977Z,28.90
2019-03-23T16:16:28.356Z,27.37
2019-03-23T16:18:57.248Z,22.60
2019-03-23T16:21:25.629Z,26.30
2019-03-23T16:23:54.626Z,22.60
2019-03-23T16:26:23.719Z,26.20
2019-03-23T16:28:52.714Z,21.17
2019-03-23T16:31:21.097Z,24.12
2019-03-23T16:33:50.516Z,24.87
2019-03-23T16:36:19.703Z,24.82
2019-03-23T16:38:48.285Z,25.27
2019-03-23T16:41:16.972Z,19.55
2019-03-23T16:43:45.351Z,24.27
2019-03-23T16:46:13.939Z,24.55
2019-03-23T16:48:43.238Z,26.15
2019-03-23T16:51:12.249Z,22.45
2019-03-23T16:53:42.616Z,24.52
2019-03-23T16:56:11.345Z,19.95
2019-03-23T16:58:40.457Z,26.68
2019-03-23T17:01:08.724Z,23.12
2019-03-23T17:03:48.950Z,24.35
2019-03-23T17:06:17.262Z,23.98
2019-03-23T17:08:45.839Z,25.15
2019-03-23T17:11:14.423Z,23.42
2019-03-23T17:13:42.809Z,23.67
2019-03-23T17:16:11.286Z,22.48
2019-03-23T17:18:39.768Z,23.35
2019-03-23T17:21:08.250Z,20.88
2019-03-23T17:23:36.630Z,23.18
2019-03-23T17:26:05.216Z,22.60
2019-03-23T17:28:33.596Z,22.77
2019-03-23T17:31:01.877Z,22.37
2019-03-23T17:33:30.561Z,21.65
2019-03-23T17:35:59.249Z,21.65
2019-03-23T17:38:27.629Z,24.65
2019-03-23T17:40:56.009Z,22.98
2019-03-23T17:43:24.493Z,25.68
2019-03-23T17:45:52.973Z,26.10
2019-03-23T17:48:21.661Z,23.05
2019-03-23T17:50:50.042Z,22.85
2019-03-23T17:53:18.319Z,23.65
2019-03-23T17:55:46.899Z,24.50
2019-03-23T17:58:15.280Z,22.98
2019-03-23T18:00:44.034Z,24.05
2019-03-23T18:03:12.361Z,22.10
2019-03-23T18:05:40.440Z,26.95
2019-03-23T18:08:09.006Z,21.35
2019-03-23T18:10:37.386Z,23.60
2019-03-23T18:13:15.919Z,20.05
2019-03-23T18:15:36.614Z,26.15
2019-03-23T18:18:05.188Z,25.23
2019-03-23T18:20:35.207Z,23.95
2019-03-23T18:23:03.687Z,22.40
2019-03-23T18:25:32.187Z,23.35
2019-03-23T18:28:00.448Z,23.38
2019-03-23T18:30:29.134Z,21.57
2019-03-23T18:32:57.717Z,23.75
2019-03-23T18:35:26.098Z,22.85
2019-03-23T18:37:54.950Z,25.20
2019-03-23T18:40:23.266Z,24.32
2019-03-23T18:42:51.649Z,22.25
2019-03-23T18:45:20.234Z,23.00
2019-03-23T18:47:48.817Z,24.27
2019-03-23T18:50:17.301Z,25.80
2019-03-23T18:52:45.852Z,23.90
2019-03-23T18:55:14.265Z,24.70
2019-03-23T18:57:42.643Z,26.90
2019-03-23T19:00:11.126Z,25.82
2019-03-23T19:02:39.559Z,31.12
2019-03-23T19:05:08.091Z,32.13
2019-03-23T19:07:36.381Z,29.63
2019-03-23T19:10:05.158Z,36.95
2019-03-23T19:12:33.641Z,32.85
2019-03-23T19:15:02.121Z,41.63
2019-03-23T19:17:31.218Z,41.88
2019-03-23T19:19:59.499Z,41.73
2019-03-23T19:22:27.979Z,45.12
2019-03-23T19:24:56.567Z,43.87
2019-03-23T19:27:24.944Z,43.83
2019-03-23T19:29:53.429Z,51.48
2019-03-23T19:32:21.867Z,43.45
2019-03-23T19:34:50.187Z,41.83
2019-03-23T19:37:18.464Z,45.45
2019-03-23T19:39:47.050Z,49.13
2019-03-23T19:42:15.431Z,50.08
2019-03-23T19:44:43.910Z,48.87
2019-03-23T19:47:12.291Z,51.37
2019-03-23T19:49:41.182Z,49.25
2019-03-23T19:52:09.460Z,52.00
2019-03-23T19:54:38.049Z,49.50
2019-03-23T19:57:06.531Z,52.43
2019-03-23T19:59:34.909Z,49.73
2019-03-23T20:02:03.571Z,52.30
2019-03-23T20:04:32.079Z,51.75
2019-03-23T20:07:00.457Z,57.55
2019-03-23T20:09:29.019Z,54.58
2019-03-23T20:11:57.319Z,56.50
2019-03-23T20:14:25.595Z,55.12
2019-03-23T20:16:54.180Z,54.85
2019-03-23T20:19:22.565Z,55.25
2019-03-23T20:21:51.144Z,59.45
2019-03-23T20:24:19.729Z,64.80
2019-03-23T20:26:48.219Z,59.18
2019-03-23T20:29:16.591Z,61.13
2019-03-23T20:31:45.615Z,57.30
2019-03-23T20:34:15.195Z,62.17
2019-03-23T20:36:43.574Z,62.45
2019-03-23T20:39:12.061Z,58.05
2019-03-23T20:41:40.961Z,57.35
2019-03-23T20:44:10.002Z,57.75
2019-03-23T20:46:38.527Z,58.92
2019-03-23T20:49:07.011Z,54.77
2019-03-23T20:51:35.291Z,53.55
2019-03-23T20:54:03.872Z,49.08
2019-03-23T20:56:32.253Z,47.75
2019-03-23T20:59:00.735Z,49.70
2019-03-23T21:01:30.343Z,44.75
2019-03-23T21:03:58.723Z,41.95
2019-03-23T21:06:27.103Z,42.55
2019-03-23T21:08:55.692Z,46.92
2019-03-23T21:11:23.964Z,43.17
2019-03-23T21:13:52.425Z,42.65
2019-03-23T21:16:20.724Z,42.35
2019-03-23T21:18:49.411Z,41.15
2019-03-23T21:21:17.996Z,42.00
2019-03-23T21:23:46.497Z,39.98
2019-03-23T21:26:14.755Z,36.65
2019-03-23T21:28:43.211Z,37.30
2019-03-23T21:31:11.543Z,36.25
2019-03-23T21:33:39.997Z,37.98
2019-03-23T21:36:08.380Z,36.93
2019-03-23T21:38:36.861Z,37.95
2019-03-23T21:41:05.246Z,36.35
2019-03-23T21:43:33.824Z,36.63
2019-03-23T21:46:02.209Z,35.85
2019-03-23T21:48:30.656Z,35.58
2019-03-23T21:50:59.481Z,36.70
2019-03-23T21:53:27.858Z,34.88
2019-03-23T21:55:56.441Z,39.00
2019-03-23T21:58:24.924Z,36.83
2019-03-23T22:00:53.508Z,34.60
2019-03-23T22:03:21.887Z,37.30
2019-03-23T22:05:50.267Z,35.90
2019-03-23T22:08:18.852Z,33.15
2019-03-23T22:10:47.334Z,35.52
2019-03-23T22:13:15.513Z,42.58
2019-03-23T22:15:44.139Z,37.17
2019-03-23T22:18:12.474Z,39.50
2019-03-23T22:20:40.753Z,44.70
2019-03-23T22:23:09.440Z,90.50
2019-03-23T22:25:37.924Z,43.73
2019-03-23T22:28:06.200Z,52.85
2019-03-23T22:30:34.682Z,46.88
2019-03-23T22:33:03.065Z,50.63
2019-03-23T22:35:31.235Z,50.08
2019-03-23T22:37:59.719Z,52.70
2019-03-23T22:40:28.369Z,54.70
2019-03-23T22:42:56.583Z,52.85
2019-03-23T22:45:25.168Z,50.20
2019-03-23T22:47:53.441Z,45.58
2019-03-23T22:50:21.822Z,47.83
2019-03-23T22:52:50.218Z,48.15
2019-03-23T22:55:18.796Z,47.93
2019-03-23T22:57:47.166Z,41.73
2019-03-23T23:00:15.648Z,42.38
2019-03-23T23:02:45.564Z,46.65
2019-03-23T23:05:13.948Z,36.13
2019-03-23T23:07:42.529Z,43.28
2019-03-23T23:10:10.911Z,39.20
2019-03-23T23:12:39.288Z,36.73
2019-03-23T23:15:07.773Z,40.88
2019-03-23T23:17:36.254Z,40.63
2019-03-23T23:20:04.741Z,37.08
2019-03-23T23:22:33.128Z,34.92
2019-03-23T23:25:01.706Z,35.40
2019-03-23T23:27:30.606Z,34.05
2019-03-23T23:29:59.140Z,35.03
2019-03-23T23:32:27.496Z,32.40
2019-03-23T23:34:56.252Z,35.33
2019-03-23T23:37:25.819Z,33.78
2019-03-23T23:39:54.335Z,34.27
2019-03-23T23:42:22.719Z,34.85
2019-03-23T23:44:51.402Z,30.85
2019-03-23T23:47:19.884Z,34.98
2019-03-23T23:49:49.903Z,29.70
2019-03-23T23:52:18.489Z,31.12
2019-03-23T23:54:46.969Z,32.45
2019-03-23T23:57:15.452Z,33.15
2019-03-23T23:59:44.139Z,32.30
